Time;durP1;ratioP1;P1;durP2;ratioP2;P2;SDS_P1;SDS_P2;PMS_P1;PMS_P2;Temp;Humidity;BMP_temperature;BMP_pressure;BME280_temperature;BME280_humidity;BME280_pressure;Samples;Min_cycle;Max_cycle;Signal;HPM_P1;HPM_P2
2023/01/19 00:01:21;;;;;;;5.43;1.10;;;6.90;99.90;;;;;;10481806;28;20837;-25
2023/01/19 00:06:25;;;;;;;2.03;0.60;;;7.20;99.90;;;;;;10486509;28;20128;-25
2023/01/19 00:11:27;;;;;;;10.65;0.90;;;5.50;99.90;;;;;;10487802;28;20072;-25
2023/01/19 00:16:28;;;;;;;4.65;0.90;;;5.50;99.90;;;;;;10487008;28;21188;-24
2023/01/19 00:21:32;;;;;;;6.97;1.20;;;6.40;99.90;;;;;;10475353;28;20048;-27
2023/01/19 00:26:33;;;;;;;;;;;6.00;99.90;;;;;;10485937;28;20048;-27
2023/01/19 00:31:35;;;;;;;5.45;0.88;;;6.50;99.90;;;;;;10483597;28;19932;-25
2023/01/19 00:36:38;;;;;;;6.03;1.08;;;6.30;99.90;;;;;;10496955;28;20135;-24
2023/01/19 00:47:02;;;;;;;8.80;1.15;;;6.10;99.90;;;;;;10481908;28;19924;-23
2023/01/19 00:52:06;;;;;;;7.55;1.50;;;6.00;99.90;;;;;;10475766;28;20083;-25
2023/01/19 00:57:08;;;;;;;11.25;1.63;;;7.80;99.90;;;;;;10476796;28;20048;-24
2023/01/19 01:02:10;;;;;;;13.43;1.92;;;5.90;99.90;;;;;;10492431;28;20132;-25
2023/01/19 01:07:14;;;;;;;5.15;0.77;;;5.30;99.90;;;;;;10482438;28;20048;-25
2023/01/19 01:12:16;;;;;;;12.93;1.13;;;6.70;99.90;;;;;;10477808;28;20068;-26
2023/01/19 01:17:23;;;;;;;7.33;0.90;;;5.90;99.90;;;;;;10481141;28;20092;-25
2023/01/19 01:22:26;;;;;;;6.10;0.68;;;4.80;99.90;;;;;;10481099;28;20162;-25
2023/01/19 01:27:28;;;;;;;;;;;5.70;99.90;;;;;;10486979;28;20048;-24
2023/01/19 01:32:30;;;;;;;3.72;0.70;;;4.70;99.90;;;;;;10487615;28;20021;-25
2023/01/19 01:37:33;;;;;;;3.08;0.95;;;8.20;99.90;;;;;;10488269;28;20589;-27
2023/01/19 01:42:35;;;;;;;9.60;1.27;;;5.90;99.90;;;;;;10485268;28;20579;-27
2023/01/19 01:47:41;;;;;;;8.75;1.13;;;5.10;99.90;;;;;;10485003;28;20411;-23
2023/01/19 01:52:49;;;;;;;20.55;1.67;;;5.40;99.90;;;;;;10479105;28;20106;-25
2023/01/19 01:57:56;;;;;;;10.95;1.58;;;6.00;99.90;;;;;;10477685;28;20080;-25
2023/01/19 02:02:59;;;;;;;3.33;0.88;;;5.00;99.90;;;;;;10469539;28;20045;-25
2023/01/19 02:13:26;;;;;;;3.10;0.60;;;4.60;99.90;;;;;;10487767;28;20060;-25
2023/01/19 02:18:30;;;;;;;2.53;0.60;;;7.20;99.90;;;;;;10488869;28;20090;-24
2023/01/19 02:23:41;;;;;;;5.32;0.70;;;10.00;99.90;;;;;;10485332;28;20424;-26
2023/01/19 02:28:47;;;;;;;3.85;0.63;;;9.60;99.90;;;;;;10479603;28;20080;-23
2023/01/19 02:33:49;;;;;;;5.10;1.15;;;11.00;99.90;;;;;;10481766;28;20129;-25
2023/01/19 02:38:55;;;;;;;2.97;0.60;;;11.20;99.90;;;;;;10483545;28;20068;-23
2023/01/19 02:43:58;;;;;;;12.35;1.08;;;10.80;99.90;;;;;;10483574;28;20079;-26
2023/01/19 02:49:01;;;;;;;6.60;0.90;;;5.90;99.90;;;;;;10484070;28;20127;-28
2023/01/19 02:54:24;;;;;;;5.27;1.23;;;6.90;99.90;;;;;;10472037;28;20072;-26
2023/01/19 02:59:42;;;;;;;5.95;1.20;;;8.40;99.90;;;;;;10478952;28;20059;-25
2023/01/19 03:04:58;;;;;;;17.50;3.53;;;6.40;99.90;;;;;;10477893;28;20105;-25
2023/01/19 03:10:07;;;;;;;17.92;2.20;;;6.80;99.90;;;;;;10482017;28;20443;-24
2023/01/19 03:15:16;;;;;;;13.85;1.20;;;6.60;99.90;;;;;;10467835;28;20109;-24
2023/01/19 03:20:23;;;;;;;13.13;2.30;;;7.30;99.90;;;;;;10485764;28;20121;-25
2023/01/19 03:25:30;;;;;;;7.97;1.40;;;5.90;99.90;;;;;;10477902;28;20041;-24
2023/01/19 03:30:36;;;;;;;17.17;1.92;;;7.00;99.90;;;;;;10475395;28;20040;-24
2023/01/19 03:35:43;;;;;;;12.35;2.15;;;8.10;99.90;;;;;;10489448;28;20073;-25
2023/01/19 03:40:47;;;;;;;20.23;2.92;;;9.00;99.90;;;;;;10488760;28;20040;-25
2023/01/19 03:45:50;;;;;;;13.55;2.60;;;8.00;99.90;;;;;;10470522;28;20139;-26
2023/01/19 03:50:52;;;;;;;11.57;1.92;;;6.80;99.90;;;;;;10488327;28;20071;-25
2023/01/19 03:55:56;;;;;;;22.33;2.42;;;6.90;99.90;;;;;;10487731;28;20052;-25
2023/01/19 04:00:58;;;;;;;10.90;1.40;;;7.80;99.90;;;;;;10484056;28;20049;-24
2023/01/19 04:05:59;;;;;;;6.47;1.95;;;8.60;99.90;;;;;;10484138;28;20144;-23
2023/01/19 04:11:03;;;;;;;14.10;1.52;;;11.40;99.90;;;;;;10484329;28;20048;-25
2023/01/19 04:16:06;;;;;;;10.95;1.45;;;10.60;99.90;;;;;;10478574;28;20044;-24
2023/01/19 04:21:08;;;;;;;28.65;2.35;;;10.00;99.90;;;;;;10482826;28;20045;-25
2023/01/19 04:26:11;;;;;;;14.50;2.28;;;7.90;99.90;;;;;;10486715;28;20148;-23
2023/01/19 04:31:13;;;;;;;17.13;2.17;;;6.90;99.90;;;;;;10487111;28;20049;-25
2023/01/19 04:36:15;;;;;;;18.92;2.53;;;8.10;99.90;;;;;;10505367;28;20062;-26
2023/01/19 04:41:18;;;;;;;30.48;3.13;;;8.30;99.90;;;;;;10486318;28;20068;-25
2023/01/19 04:46:20;;;;;;;18.20;1.88;;;7.80;99.90;;;;;;10477481;28;20378;-28
2023/01/19 04:51:22;;;;;;;25.23;2.38;;;7.30;99.90;;;;;;10491668;28;20063;-25
2023/01/19 04:56:26;;;;;;;23.40;2.78;;;6.70;99.90;;;;;;10490928;28;20118;-24
2023/01/19 05:01:28;;;;;;;;;;;6.90;99.90;;;;;;10498719;28;20048;-25
2023/01/19 05:06:29;;;;;;;17.50;2.15;;;7.60;99.90;;;;;;10490458;28;19946;-24
2023/01/19 05:11:33;;;;;;;21.80;2.47;;;6.60;99.90;;;;;;10490079;28;20158;-25
2023/01/19 05:16:34;;;;;;;;;;;6.80;99.90;;;;;;10474085;28;20054;-27
2023/01/19 05:21:36;;;;;;;15.52;1.90;;;7.50;99.90;;;;;;10477794;28;19928;-25
2023/01/19 05:26:40;;;;;;;16.65;2.78;;;7.50;99.90;;;;;;10478175;28;20080;-28
2023/01/19 05:31:41;;;;;;;6.25;0.90;;;7.30;99.90;;;;;;10479519;28;20130;-25
2023/01/19 05:36:43;;;;;;;21.73;3.22;;;9.10;99.90;;;;;;10460152;28;20075;-26
2023/01/19 05:41:47;;;;;;;4.63;1.10;;;7.20;99.90;;;;;;10466139;28;20128;-27
2023/01/19 05:46:48;;;;;;;;;;;9.00;99.90;;;;;;10466829;28;20194;-26
2023/01/19 05:51:50;;;;;;;4.75;1.95;;;8.90;98.10;;;;;;10470287;28;20079;-25
2023/01/19 05:56:54;;;;;;;19.77;2.70;;;8.80;99.90;;;;;;10472297;28;20080;-25
2023/01/19 06:01:56;;;;;;;14.10;1.70;;;7.20;99.90;;;;;;10460527;28;20128;-25
2023/01/19 06:06:58;;;;;;;10.02;2.13;;;7.90;99.90;;;;;;10460458;28;20045;-25
2023/01/19 06:12:01;;;;;;;13.35;1.95;;;8.50;99.90;;;;;;10456685;28;20061;-26
2023/01/19 06:17:49;;;;;;;11.77;1.70;;;8.20;99.90;;;;;;10453162;28;20753;-23
2023/01/19 06:22:50;;;;;;;;;;;8.50;99.90;;;;;;10426716;28;20123;-26
2023/01/19 06:27:52;;;;;;;13.38;1.70;;;7.80;99.90;;;;;;10428277;28;19968;-23
2023/01/19 06:32:56;;;;;;;17.73;2.35;;;7.80;99.90;;;;;;10433924;28;20132;-25
2023/01/19 06:37:58;;;;;;;19.15;2.20;;;7.40;99.90;;;;;;10426877;28;20045;-26
2023/01/19 06:43:00;;;;;;;7.93;1.67;;;8.60;99.90;;;;;;10432137;28;20056;-23
2023/01/19 06:48:03;;;;;;;19.48;3.35;;;9.50;99.90;;;;;;10431786;28;20054;-24
2023/01/19 06:53:05;;;;;;;15.25;1.92;;;9.70;95.40;;;;;;10432951;28;20175;-26
2023/01/19 06:58:07;;;;;;;12.30;1.67;;;8.80;99.90;;;;;;10435276;28;20515;-24
2023/01/19 07:14:48;;;;;;;6.63;1.98;;;10.10;99.90;;;;;;10489520;27;20653;-24
2023/01/19 07:19:50;;;;;;;19.52;2.30;;;8.60;99.90;;;;;;10517536;28;20420;-26
2023/01/19 07:24:51;;;;;;;19.88;2.40;;;7.90;99.90;;;;;;10519602;28;20161;-25
2023/01/19 07:29:55;;;;;;;13.90;2.58;;;8.00;99.90;;;;;;10520600;28;20075;-26
2023/01/19 07:34:56;;;;;;;;;;;8.00;99.90;;;;;;10523074;28;20083;-26
2023/01/19 07:39:58;;;;;;;9.40;1.80;;;9.10;99.90;;;;;;10509798;28;20584;-25
2023/01/19 07:45:02;;;;;;;7.07;1.70;;;7.50;99.90;;;;;;10516641;28;20134;-24
2023/01/19 07:50:04;;;;;;;9.40;1.40;;;8.50;99.90;;;;;;10514086;28;20127;-26
2023/01/19 07:55:07;;;;;;;10.05;1.60;;;10.30;99.90;;;;;;10516199;28;20048;-25
2023/01/19 08:00:13;;;;;;;16.05;2.85;;;8.30;99.90;;;;;;10516006;28;20072;-26
2023/01/19 08:05:15;;;;;;;12.23;2.00;;;9.10;84.70;;;;;;10505094;28;20044;-25
2023/01/19 08:10:17;;;;;;;13.25;2.05;;;10.20;99.90;;;;;;10501784;28;20122;-25
2023/01/19 08:15:23;;;;;;;6.57;1.77;;;8.50;99.90;;;;;;10510696;28;20067;-24
2023/01/19 08:20:25;;;;;;;11.70;1.70;;;9.60;99.20;;;;;;10505966;28;20044;-30
2023/01/19 08:25:32;;;;;;;11.35;1.50;;;8.80;99.90;;;;;;10492448;28;20045;-24
2023/01/19 08:30:37;;;;;;;5.57;1.70;;;10.40;99.90;;;;;;10480937;28;20114;-24
2023/01/19 08:35:41;;;;;;;11.60;1.42;;;11.10;99.90;;;;;;10490654;28;20041;-23
2023/01/19 08:40:43;;;;;;;5.40;1.50;;;8.80;99.90;;;;;;10486970;28;20070;-24
2023/01/19 08:45:50;;;;;;;9.97;1.63;;;11.10;89.10;;;;;;10481852;28;20036;-25
2023/01/19 08:50:53;;;;;;;4.55;1.80;;;12.30;99.30;;;;;;10482310;28;20117;-25
2023/01/19 08:55:58;;;;;;;6.27;1.07;;;10.50;99.90;;;;;;10482161;28;20491;-24
2023/01/19 09:01:01;;;;;;;11.57;1.77;;;11.60;99.90;;;;;;10486701;28;20052;-25
2023/01/19 09:06:06;;;;;;;8.43;1.38;;;10.10;97.70;;;;;;10476894;28;20076;-25
2023/01/19 09:11:11;;;;;;;10.80;1.63;;;9.10;77.40;;;;;;10477885;28;20068;-24
2023/01/19 09:16:14;;;;;;;6.03;1.20;;;8.70;87.20;;;;;;10476819;28;20408;-25
2023/01/19 09:21:17;;;;;;;11.13;1.15;;;10.00;99.90;;;;;;10478736;28;20418;-25
2023/01/19 09:26:21;;;;;;;6.53;1.13;;;9.70;91.20;;;;;;10483404;28;20135;-25
2023/01/19 09:31:24;;;;;;;5.25;0.85;;;7.50;99.90;;;;;;10468362;28;20052;-26
2023/01/19 09:36:26;;;;;;;5.00;1.38;;;10.50;99.90;;;;;;10488373;28;20110;-24
2023/01/19 09:41:29;;;;;;;6.07;1.20;;;9.00;99.90;;;;;;10483396;28;20106;-23
2023/01/19 09:46:38;;;;;;;5.68;0.80;;;10.00;99.90;;;;;;10486491;28;20133;-25
2023/01/19 09:51:43;;;;;;;6.22;1.13;;;9.80;69.10;;;;;;10478785;28;20055;-27
2023/01/19 09:56:55;;;;;;;4.18;1.30;;;10.00;99.90;;;;;;10478556;28;20052;-24
2023/01/19 10:02:32;;;;;;;7.70;1.00;;;9.20;86.90;;;;;;10474733;28;20071;-27
2023/01/19 10:08:02;;;;;;;4.07;0.90;;;10.20;99.90;;;;;;10499508;28;20479;-25
2023/01/19 10:13:22;;;;;;;5.38;1.10;;;10.50;99.90;;;;;;10470855;28;20147;-26
2023/01/19 10:18:32;;;;;;;6.45;0.80;;;8.10;85.10;;;;;;10482534;28;20064;-26
2023/01/19 10:23:41;;;;;;;2.00;0.60;;;7.60;84.50;;;;;;10479999;28;20059;-25
2023/01/19 10:28:45;;;;;;;5.50;1.88;;;8.60;91.60;;;;;;10477732;28;20064;-25
2023/01/19 10:33:49;;;;;;;2.88;1.00;;;9.00;99.90;;;;;;10484994;28;20421;-29
2023/01/19 10:38:51;;;;;;;1.60;0.45;;;8.40;83.70;;;;;;10474238;28;20037;-27
2023/01/19 10:44:00;;;;;;;3.90;1.38;;;10.50;79.70;;;;;;10476156;28;20097;-27
2023/01/19 10:49:03;;;;;;;10.55;1.35;;;9.80;99.90;;;;;;10471173;28;20405;-25
2023/01/19 10:54:11;;;;;;;4.63;0.90;;;8.00;99.90;;;;;;10482238;28;20056;-25
2023/01/19 10:59:31;;;;;;;6.05;1.00;;;7.60;90.20;;;;;;10482697;28;20473;-26
2023/01/19 11:04:34;;;;;;;2.78;0.88;;;7.80;70.90;;;;;;10479978;28;20048;-26
2023/01/19 11:09:36;;;;;;;3.75;1.10;;;7.60;99.90;;;;;;10480830;28;20075;-25
2023/01/19 11:14:39;;;;;;;2.75;1.05;;;7.40;99.90;;;;;;10475239;28;20799;-26
2023/01/19 11:19:42;;;;;;;5.83;1.27;;;10.50;99.90;;;;;;10485052;28;20139;-26
2023/01/19 11:24:44;;;;;;;6.57;1.13;;;7.80;84.50;;;;;;10481988;28;20577;-29
2023/01/19 11:29:49;;;;;;;7.53;1.30;;;7.40;99.90;;;;;;10472392;28;20048;-26
2023/01/19 11:34:52;;;;;;;3.83;1.30;;;6.70;90.90;;;;;;10487043;28;20053;-27
2023/01/19 11:39:57;;;;;;;2.90;1.08;;;7.10;92.00;;;;;;10484498;28;20133;-25
2023/01/19 11:45:04;;;;;;;2.90;1.00;;;7.10;99.90;;;;;;10476685;28;20149;-25
2023/01/19 11:50:15;;;;;;;7.10;0.95;;;9.30;99.90;;;;;;10470847;28;20076;-25
2023/01/19 11:55:21;;;;;;;6.63;0.88;;;7.30;95.00;;;;;;10465878;28;20095;-28
2023/01/19 12:00:27;;;;;;;5.88;1.42;;;8.60;99.90;;;;;;10474943;28;20119;-25
2023/01/19 12:05:34;;;;;;;2.47;0.60;;;7.70;79.00;;;;;;10468749;28;20114;-28
2023/01/19 12:10:40;;;;;;;8.55;1.40;;;9.20;93.10;;;;;;10481099;28;20153;-26
2023/01/19 12:15:43;;;;;;;13.43;1.20;;;8.30;73.40;;;;;;10475698;28;20063;-25
2023/01/19 12:20:49;;;;;;;3.78;1.10;;;7.50;79.80;;;;;;10474869;28;20052;-27
2023/01/19 12:26:01;;;;;;;3.40;0.57;;;7.50;79.50;;;;;;10478153;28;20045;-25
2023/01/19 12:31:04;;;;;;;1.70;0.70;;;7.90;92.10;;;;;;10480365;28;20056;-25
2023/01/19 12:36:11;;;;;;;6.25;1.60;;;7.70;91.40;;;;;;10480454;28;20102;-26
2023/01/19 12:41:23;;;;;;;2.63;1.08;;;9.20;97.40;;;;;;10485454;28;20126;-26
2023/01/19 12:46:29;;;;;;;4.85;1.00;;;8.80;99.90;;;;;;10480041;28;20523;-24
2023/01/19 12:51:33;;;;;;;1.83;1.35;;;8.20;95.00;;;;;;10483352;28;20056;-29
2023/01/19 12:56:38;;;;;;;1.42;0.65;;;7.80;83.80;;;;;;10491734;28;20489;-24
2023/01/19 13:01:40;;;;;;;2.45;1.10;;;7.60;99.10;;;;;;10484097;28;20127;-24
2023/01/19 13:07:09;;;;;;;3.58;1.27;;;7.30;83.30;;;;;;10480212;28;20044;-25
2023/01/19 13:12:19;;;;;;;2.38;1.10;;;10.40;73.50;;;;;;10472445;28;20497;-26
2023/01/19 13:17:32;;;;;;;2.63;0.90;;;9.70;91.70;;;;;;10467943;28;20131;-26
2023/01/19 13:23:19;;;;;;;5.07;1.00;;;9.50;99.90;;;;;;10479072;28;20405;-27
2023/01/19 13:28:32;;;;;;;2.83;1.45;;;9.10;96.00;;;;;;10463475;28;20467;-26
2023/01/19 13:33:43;;;;;;;3.22;1.33;;;8.80;92.70;;;;;;10461847;28;20052;-26
2023/01/19 13:38:45;;;;;;;3.60;1.27;;;11.10;81.40;;;;;;10467191;28;20550;-25
2023/01/19 13:43:53;;;;;;;2.87;0.90;;;10.70;65.50;;;;;;10467688;28;20041;-24
2023/01/19 13:48:57;;;;;;;11.85;1.15;;;9.10;99.90;;;;;;10475690;28;20216;-25
2023/01/19 13:54:01;;;;;;;4.40;0.98;;;8.60;78.60;;;;;;10476945;28;20483;-24
2023/01/19 13:59:10;;;;;;;8.95;1.05;;;8.80;99.90;;;;;;10492816;28;20047;-28
2023/01/19 14:04:27;;;;;;;3.70;0.85;;;9.20;75.40;;;;;;10481413;28;20497;-25
2023/01/19 14:09:28;;;;;;;8.57;1.38;;;10.40;92.60;;;;;;10468404;28;20094;-25
2023/01/19 14:14:32;;;;;;;6.85;1.30;;;9.20;87.70;;;;;;10466886;28;20049;-25
2023/01/19 14:24:17;;;;;;;2.22;1.00;;;9.40;84.40;;;;;;10610836;27;20561;-25
2023/01/19 14:29:24;;;;;;;2.13;0.73;;;12.20;96.70;;;;;;10587935;28;20075;-26
2023/01/19 14:34:31;;;;;;;6.13;1.45;;;10.70;94.30;;;;;;10581480;28;20060;-27
2023/01/19 14:39:35;;;;;;;5.95;1.00;;;9.90;70.90;;;;;;10598460;28;20047;-28
2023/01/19 14:44:39;;;;;;;5.32;1.27;;;10.00;99.90;;;;;;10588877;28;20047;-25
2023/01/19 14:49:46;;;;;;;3.25;1.10;;;9.90;99.90;;;;;;10600141;28;20052;-24
2023/01/19 14:54:50;;;;;;;6.28;1.00;;;11.20;99.90;;;;;;10591542;27;20043;-25
2023/01/19 14:59:52;;;;;;;2.60;0.98;;;9.40;91.90;;;;;;10597812;27;20096;-28
2023/01/19 15:04:56;;;;;;;4.15;1.77;;;10.40;99.90;;;;;;10593913;28;20126;-24
2023/01/19 15:09:59;;;;;;;5.78;1.63;;;12.30;85.80;;;;;;10589624;28;20419;-24
2023/01/19 15:15:01;;;;;;;3.25;1.55;;;10.80;68.20;;;;;;10587989;28;20047;-25
2023/01/19 15:20:06;;;;;;;3.03;1.30;;;13.80;98.90;;;;;;10594550;28;20063;-25
2023/01/19 15:25:13;;;;;;;4.57;1.42;;;11.00;99.90;;;;;;10595385;28;20138;-25
2023/01/19 15:30:17;;;;;;;7.53;1.20;;;11.50;71.70;;;;;;10593948;27;20090;-26
2023/01/19 15:35:21;;;;;;;5.20;1.88;;;12.20;73.50;;;;;;10573136;28;20054;-27
2023/01/19 15:40:24;;;;;;;4.70;1.70;;;12.20;99.90;;;;;;10574448;28;20073;-28
2023/01/19 15:45:33;;;;;;;2.97;1.50;;;12.20;99.90;;;;;;10563553;28;20075;-28
2023/01/19 15:50:38;;;;;;;7.25;2.55;;;13.20;99.90;;;;;;10552612;28;20075;-25
2023/01/19 15:55:41;;;;;;;4.75;1.75;;;14.60;86.30;;;;;;10570091;28;20067;-26
2023/01/19 16:00:43;;;;;;;4.65;1.42;;;10.80;94.30;;;;;;10574546;27;20704;-26
2023/01/19 16:05:45;;;;;;;3.05;1.27;;;8.90;99.90;;;;;;10566102;28;20727;-26
2023/01/19 16:10:48;;;;;;;2.72;0.88;;;11.10;90.70;;;;;;10566785;28;20046;-27
2023/01/19 16:15:50;;;;;;;1.17;0.88;;;14.20;94.00;;;;;;10551992;28;20135;-29
2023/01/19 16:20:52;;;;;;;1.45;0.70;;;15.30;93.00;;;;;;10558493;28;20139;-26
2023/01/19 16:26:03;;;;;;;3.53;1.50;;;15.40;92.30;;;;;;10557715;28;20043;-26
2023/01/19 16:31:05;;;;;;;9.45;3.25;;;15.30;93.00;;;;;;10564629;28;20052;-26
2023/01/19 16:36:18;;;;;;;6.35;3.35;;;16.30;85.60;;;;;;10556251;28;20704;-25
2023/01/19 16:41:22;;;;;;;10.43;3.92;;;16.40;83.50;;;;;;10553527;28;21792;-24
2023/01/19 16:46:25;;;;;;;4.07;1.88;;;16.60;81.50;;;;;;10562514;28;20044;-25
2023/01/19 16:51:28;;;;;;;3.75;1.80;;;16.60;81.10;;;;;;10562284;28;20507;-26
2023/01/19 16:56:31;;;;;;;2.45;1.52;;;16.70;80.30;;;;;;10559487;27;20254;-26
2023/01/19 17:01:33;;;;;;;3.10;1.95;;;16.60;81.00;;;;;;10562746;27;20108;-28
2023/01/19 17:06:35;;;;;;;4.13;1.93;;;16.60;80.90;;;;;;10561043;28;20047;-26
2023/01/19 17:11:39;;;;;;;6.13;2.57;;;16.60;80.80;;;;;;10557408;28;20122;-23
2023/01/19 17:16:41;;;;;;;6.75;2.80;;;16.60;80.50;;;;;;10552698;28;20050;-27
2023/01/19 17:21:45;;;;;;;6.97;3.38;;;16.60;80.80;;;;;;10559851;28;20052;-25
2023/01/19 17:26:48;;;;;;;3.92;2.65;;;16.80;79.60;;;;;;10552789;28;20404;-26
2023/01/19 17:31:50;;;;;;;6.53;3.42;;;16.80;79.20;;;;;;10560316;28;20088;-31
2023/01/19 17:36:55;;;;;;;10.03;4.57;;;16.80;79.50;;;;;;10554984;28;20042;-28
2023/01/19 17:41:58;;;;;;;8.25;4.13;;;16.80;79.00;;;;;;10566490;28;20497;-30
2023/01/19 17:47:00;;;;;;;14.23;4.38;;;16.80;79.30;;;;;;10548727;28;20051;-25
2023/01/19 17:52:03;;;;;;;9.70;4.13;;;16.50;81.10;;;;;;10560297;28;20118;-30
2023/01/19 17:57:06;;;;;;;4.93;1.73;;;16.60;81.90;;;;;;10546722;28;20098;-30
2023/01/19 18:02:08;;;;;;;7.75;3.38;;;12.60;71.00;;;;;;10559974;27;20710;-25
2023/01/19 18:07:11;;;;;;;8.30;4.25;;;15.00;95.50;;;;;;10559051;28;20043;-26
2023/01/19 18:12:14;;;;;;;12.80;4.72;;;16.30;86.70;;;;;;10564420;28;20136;-30
2023/01/19 18:17:16;;;;;;;12.30;5.65;;;17.10;86.20;;;;;;10548200;28;20048;-26
2023/01/19 18:22:18;;;;;;;11.60;5.30;;;16.40;91.20;;;;;;10553421;28;20056;-27
2023/01/19 18:27:21;;;;;;;10.43;5.57;;;16.00;89.30;;;;;;10555920;28;20584;-25
2023/01/19 18:32:24;;;;;;;10.85;4.82;;;15.90;90.10;;;;;;10561791;28;20054;-24
2023/01/19 18:37:26;;;;;;;11.98;5.43;;;15.70;90.40;;;;;;10561619;28;20044;-26
2023/01/19 18:42:29;;;;;;;11.10;5.90;;;15.50;91.20;;;;;;10554216;28;20043;-26
2023/01/19 18:47:33;;;;;;;11.57;5.35;;;14.90;77.00;;;;;;10562007;28;20584;-28
2023/01/19 18:52:34;;;;;;;13.23;5.25;;;14.70;95.20;;;;;;10561029;28;20044;-27
2023/01/19 18:57:38;;;;;;;14.23;6.50;;;15.00;93.50;;;;;;10555440;28;20055;-26
2023/01/19 19:02:40;;;;;;;14.68;6.40;;;15.10;93.50;;;;;;10555600;28;20075;-26
2023/01/19 19:07:42;;;;;;;15.87;6.53;;;15.10;92.90;;;;;;10558348;28;20094;-27
2023/01/19 19:12:47;;;;;;;11.93;5.18;;;15.20;92.90;;;;;;10562802;28;20136;-25
2023/01/19 19:17:48;;;;;;;10.43;4.97;;;15.20;92.20;;;;;;10567257;28;20051;-24
2023/01/19 19:22:51;;;;;;;11.02;4.65;;;15.10;93.30;;;;;;10570487;28;20154;-27
2023/01/19 19:27:54;;;;;;;5.55;2.53;;;15.40;92.00;;;;;;10566432;27;20136;-24
2023/01/19 19:32:58;;;;;;;4.78;2.22;;;16.20;89.40;;;;;;10569911;28;20093;-27
2023/01/19 19:38:00;;;;;;;4.05;1.73;;;16.30;88.50;;;;;;10559822;28;20050;-27
2023/01/19 19:43:03;;;;;;;5.30;1.57;;;16.60;86.50;;;;;;10560791;28;20043;-27
2023/01/19 19:48:05;;;;;;;2.65;1.00;;;16.70;85.90;;;;;;10564775;28;20048;-29
2023/01/19 19:53:07;;;;;;;8.80;4.85;;;16.70;85.60;;;;;;10565603;28;20469;-27
2023/01/19 19:58:10;;;;;;;10.23;5.40;;;16.80;84.70;;;;;;10569608;27;20044;-27
2023/01/19 20:03:12;;;;;;;12.40;5.10;;;17.00;84.10;;;;;;10563015;27;20071;-26
2023/01/19 20:08:15;;;;;;;18.27;7.57;;;17.00;83.50;;;;;;10566829;28;20143;-26
2023/01/19 20:13:19;;;;;;;;;;;16.90;84.20;;;;;;10551314;28;20075;-30
2023/01/19 20:18:21;;;;;;;12.98;6.05;;;17.00;83.30;;;;;;10560374;28;20406;-26
2023/01/19 20:23:23;;;;;;;12.43;4.90;;;16.90;84.10;;;;;;10564098;28;20187;-26
2023/01/19 20:28:26;;;;;;;25.52;8.55;;;16.70;85.50;;;;;;10563287;28;20040;-26
2023/01/19 20:33:28;;;;;;;20.98;6.95;;;16.70;85.50;;;;;;10557308;28;20126;-26
2023/01/19 20:38:30;;;;;;;23.63;7.73;;;16.60;84.40;;;;;;10567450;28;20074;-26
2023/01/19 20:43:34;;;;;;;17.67;8.47;;;16.60;85.40;;;;;;10555830;28;20044;-25
2023/01/19 20:48:37;;;;;;;25.55;10.57;;;16.60;85.20;;;;;;10553734;28;20559;-26
2023/01/19 20:53:41;;;;;;;23.85;9.23;;;16.40;86.40;;;;;;10559689;27;21300;-26
2023/01/19 20:58:44;;;;;;;19.23;9.07;;;16.40;86.10;;;;;;10563090;28;20089;-27
2023/01/19 21:03:47;;;;;;;22.27;10.90;;;16.40;86.10;;;;;;10559436;28;20075;-29
2023/01/19 21:08:49;;;;;;;;;;;16.30;86.40;;;;;;10553119;28;20050;-25
2023/01/19 21:13:54;;;;;;;23.48;8.73;;;16.20;87.10;;;;;;10562775;28;19928;-26
2023/01/19 21:18:56;;;;;;;19.40;9.32;;;16.20;86.50;;;;;;10561502;28;20047;-29
2023/01/19 21:23:59;;;;;;;21.50;9.63;;;16.10;87.20;;;;;;10557928;28;20062;-26
2023/01/19 21:29:03;;;;;;;18.55;9.00;;;16.10;87.60;;;;;;10548849;28;20043;-26
2023/01/19 21:34:05;;;;;;;22.27;9.57;;;16.10;87.80;;;;;;10557595;28;20083;-25
2023/01/19 21:39:07;;;;;;;17.75;8.02;;;16.10;87.70;;;;;;10559605;28;20058;-26
2023/01/19 21:44:12;;;;;;;21.48;8.95;;;16.10;87.60;;;;;;10556672;28;20146;-26
2023/01/19 21:49:18;;;;;;;22.45;10.52;;;15.90;88.70;;;;;;10546453;28;20039;-28
2023/01/19 21:54:19;;;;;;;26.98;9.75;;;15.80;88.70;;;;;;10549427;28;20044;-26
2023/01/19 21:59:23;;;;;;;21.47;10.63;;;15.70;88.70;;;;;;10557614;27;20036;-24
2023/01/19 22:04:24;;;;;;;18.33;8.75;;;15.70;88.50;;;;;;10561618;28;20051;-26
2023/01/19 22:09:26;;;;;;;18.50;8.40;;;15.60;89.70;;;;;;10557699;28;20039;-29
2023/01/19 22:14:30;;;;;;;20.70;8.50;;;15.40;90.50;;;;;;10558818;28;20131;-26
2023/01/19 22:19:31;;;;;;;19.50;9.48;;;15.20;90.50;;;;;;10560185;28;20091;-27
2023/01/19 22:24:33;;;;;;;19.63;8.93;;;15.10;91.50;;;;;;10564166;28;20096;-27
2023/01/19 22:29:37;;;;;;;17.25;8.20;;;15.10;91.30;;;;;;10551951;28;20065;-26
2023/01/19 22:34:38;;;;;;;7.70;2.72;;;14.50;93.50;;;;;;10564097;28;20127;-26
2023/01/19 22:39:42;;;;;;;4.77;2.73;;;16.20;86.70;;;;;;10565786;28;20067;-26
2023/01/19 22:44:45;;;;;;;13.90;4.18;;;16.10;86.20;;;;;;10552062;28;20142;-25
2023/01/19 22:49:47;;;;;;;7.38;3.40;;;16.10;85.90;;;;;;10561155;28;20036;-26
2023/01/19 22:54:51;;;;;;;6.30;3.00;;;16.30;84.10;;;;;;10566654;28;20088;-27
2023/01/19 22:59:54;;;;;;;6.35;2.90;;;16.20;84.40;;;;;;10564938;27;20067;-27
2023/01/19 23:04:56;;;;;;;4.75;2.08;;;16.30;83.70;;;;;;10571444;27;20048;-27
2023/01/19 23:09:58;;;;;;;7.53;3.13;;;16.20;83.50;;;;;;10571141;28;20559;-26
2023/01/19 23:15:01;;;;;;;8.50;3.80;;;16.20;83.60;;;;;;10561888;28;20732;-26
2023/01/19 23:20:04;;;;;;;5.90;2.90;;;16.10;83.80;;;;;;10563606;28;20502;-27
2023/01/19 23:25:06;;;;;;;;;;;15.50;87.80;;;;;;10567818;28;20079;-25
2023/01/19 23:30:11;;;;;;;4.03;2.13;;;16.10;83.70;;;;;;10568829;28;19923;-27
2023/01/19 23:35:13;;;;;;;5.22;2.05;;;16.30;82.00;;;;;;10566428;28;20051;-26
2023/01/19 23:40:15;;;;;;;6.28;2.53;;;16.20;81.80;;;;;;10567005;28;20052;-28
2023/01/19 23:45:18;;;;;;;6.30;2.58;;;16.30;81.00;;;;;;10559263;27;20047;-25
2023/01/19 23:50:20;;;;;;;6.07;3.00;;;16.20;81.10;;;;;;10562835;28;20144;-26
2023/01/19 23:55:22;;;;;;;6.97;2.20;;;16.30;81.00;;;;;;10565140;28;20062;-26
